createdAt,value
2018-11-10T00:02:13.095Z,29.00
2018-11-10T00:04:41.876Z,32.80
2018-11-10T00:07:10.665Z,32.90
2018-11-10T00:09:39.267Z,31.87
2018-11-10T00:12:07.982Z,30.13
2018-11-10T00:14:36.631Z,31.57
2018-11-10T00:17:05.542Z,30.60
2018-11-10T00:19:34.219Z,31.37
2018-11-10T00:22:02.899Z,30.63
2018-11-10T00:24:31.620Z,31.20
2018-11-10T00:27:00.276Z,32.90
2018-11-10T00:29:28.940Z,29.57
2018-11-10T00:31:57.613Z,33.63
2018-11-10T00:34:26.378Z,31.27
2018-11-10T00:36:54.979Z,30.97
2018-11-10T00:39:23.615Z,30.07
2018-11-10T00:41:52.290Z,32.40
2018-11-10T00:44:21.001Z,31.37
2018-11-10T00:46:49.659Z,31.10
2018-11-10T00:49:18.328Z,32.30
2018-11-10T00:51:47.000Z,31.47
2018-11-10T00:54:15.662Z,31.03
2018-11-10T00:56:44.363Z,31.50
2018-11-10T00:59:13.034Z,32.07
2018-11-10T01:01:41.796Z,31.17
2018-11-10T01:04:10.481Z,30.87
2018-11-10T01:06:39.142Z,30.00
2018-11-10T01:09:08.697Z,31.03
2018-11-10T01:11:37.422Z,29.40
2018-11-10T01:14:06.494Z,30.37
2018-11-10T01:16:35.124Z,29.90
2018-11-10T01:19:03.869Z,29.80
2018-11-10T01:21:32.495Z,28.70
2018-11-10T01:24:01.342Z,29.00
2018-11-10T01:26:29.998Z,30.33
2018-11-10T01:28:58.728Z,31.53
2018-11-10T01:31:27.370Z,29.10
2018-11-10T01:33:55.996Z,29.80
2018-11-10T01:36:24.651Z,30.93
2018-11-10T01:38:53.359Z,29.93
2018-11-10T01:41:22.010Z,29.00
2018-11-10T01:43:50.669Z,29.80
2018-11-10T01:46:19.311Z,28.53
2018-11-10T01:48:47.914Z,30.77
2018-11-10T01:51:16.579Z,30.93
2018-11-10T01:53:45.204Z,28.57
2018-11-10T01:56:13.892Z,27.40
2018-11-10T01:58:42.515Z,28.43
2018-11-10T02:01:11.178Z,29.40
2018-11-10T02:03:39.841Z,30.27
2018-11-10T02:06:08.461Z,29.37
2018-11-10T02:08:37.108Z,28.93
2018-11-10T02:11:05.804Z,29.60
2018-11-10T02:13:34.452Z,30.77
2018-11-10T02:16:03.122Z,31.90
2018-11-10T02:18:31.732Z,28.60
2018-11-10T02:21:00.381Z,29.93
2018-11-10T02:23:29.035Z,31.80
2018-11-10T02:25:57.803Z,29.60
2018-11-10T02:28:26.536Z,31.27
2018-11-10T02:30:55.250Z,30.90
2018-11-10T02:33:23.931Z,29.03
2018-11-10T02:35:52.611Z,29.27
2018-11-10T02:38:21.335Z,28.07
2018-11-10T02:40:50.045Z,29.13
2018-11-10T02:43:18.742Z,25.77
2018-11-10T02:45:47.449Z,27.03
2018-11-10T02:48:16.107Z,29.80
2018-11-10T02:50:44.736Z,27.20
2018-11-10T02:53:13.401Z,27.43
2018-11-10T02:55:42.137Z,28.20
2018-11-10T02:58:10.800Z,25.83
2018-11-10T03:00:39.451Z,25.33
2018-11-10T03:03:08.217Z,25.10
2018-11-10T03:05:36.855Z,25.90
2018-11-10T03:08:05.801Z,25.73
2018-11-10T03:10:34.549Z,25.30
2018-11-10T03:13:03.133Z,25.27
2018-11-10T03:15:31.719Z,23.33
2018-11-10T03:18:00.398Z,25.00
2018-11-10T03:20:29.077Z,24.70
2018-11-10T03:22:57.801Z,24.63
2018-11-10T03:25:26.507Z,23.73
2018-11-10T03:27:55.258Z,22.83
2018-11-10T03:30:23.926Z,23.67
2018-11-10T03:32:52.585Z,23.60
2018-11-10T03:35:21.290Z,24.47
2018-11-10T03:37:49.956Z,23.50
2018-11-10T03:40:18.572Z,20.80
2018-11-10T03:42:47.245Z,22.23
2018-11-10T03:45:15.941Z,22.07
2018-11-10T03:47:44.627Z,22.87
2018-11-10T03:50:13.280Z,22.63
2018-11-10T03:52:42.483Z,21.00
2018-11-10T03:55:11.227Z,22.97
2018-11-10T03:57:39.859Z,23.57
2018-11-10T04:00:12.305Z,21.80
2018-11-10T04:02:41.940Z,21.47
2018-11-10T04:05:11.290Z,21.60
2018-11-10T04:07:40.840Z,22.93
2018-11-10T04:10:09.482Z,22.83
2018-11-10T04:12:38.132Z,20.80
2018-11-10T04:15:07.003Z,21.13
2018-11-10T04:17:35.918Z,20.63
2018-11-10T04:20:05.529Z,21.17
2018-11-10T04:22:35.236Z,19.00
2018-11-10T04:25:05.177Z,21.30
2018-11-10T04:27:34.437Z,19.70
2018-11-10T04:30:04.328Z,19.77
2018-11-10T04:32:33.364Z,20.20
2018-11-10T04:35:02.069Z,18.87
2018-11-10T04:37:30.732Z,18.93
2018-11-10T04:39:59.378Z,19.33
2018-11-10T04:42:28.089Z,20.03
2018-11-10T04:44:56.749Z,18.97
2018-11-10T04:47:25.391Z,18.80
2018-11-10T04:49:54.101Z,18.63
2018-11-10T04:52:22.766Z,18.53
2018-11-10T04:54:51.433Z,18.00
2018-11-10T04:57:20.113Z,17.80
2018-11-10T04:59:48.944Z,18.50
2018-11-10T05:02:17.625Z,17.77
2018-11-10T05:04:46.234Z,20.23
2018-11-10T05:07:14.891Z,18.17
2018-11-10T05:09:43.481Z,18.57
2018-11-10T05:12:12.164Z,19.10
2018-11-10T05:14:40.843Z,18.67
2018-11-10T05:17:09.538Z,17.70
2018-11-10T05:19:38.421Z,17.87
2018-11-10T05:22:07.064Z,17.17
2018-11-10T05:24:35.888Z,18.33
2018-11-10T05:27:04.782Z,16.50
2018-11-10T05:29:33.432Z,17.57
2018-11-10T05:32:02.083Z,16.53
2018-11-10T05:34:30.753Z,15.70
2018-11-10T05:36:59.477Z,17.03
2018-11-10T05:39:28.176Z,15.37
2018-11-10T05:41:56.851Z,18.13
2018-11-10T05:44:25.520Z,15.80
2018-11-10T05:46:54.184Z,15.57
2018-11-10T05:49:22.839Z,15.63
2018-11-10T05:51:51.473Z,14.40
2018-11-10T05:54:20.213Z,15.07
2018-11-10T05:56:48.833Z,15.03
2018-11-10T05:59:17.503Z,14.40
2018-11-10T06:01:46.324Z,15.03
2018-11-10T06:04:15.038Z,13.87
2018-11-10T06:06:43.652Z,13.87
2018-11-10T06:09:12.324Z,12.97
2018-11-10T06:11:41.386Z,13.80
2018-11-10T06:14:10.097Z,12.53
2018-11-10T06:16:38.824Z,13.17
2018-11-10T06:19:07.493Z,13.23
2018-11-10T06:21:36.217Z,13.17
2018-11-10T06:24:04.942Z,12.47
2018-11-10T06:26:33.673Z,11.60
2018-11-10T06:29:02.326Z,11.23
2018-11-10T06:31:30.994Z,10.47
2018-11-10T06:33:59.775Z,12.03
2018-11-10T06:36:28.442Z,12.00
2018-11-10T06:38:57.109Z,11.20
2018-11-10T06:41:25.856Z,9.90
2018-11-10T06:43:54.580Z,10.20
2018-11-10T06:46:23.240Z,10.50
2018-11-10T06:48:51.896Z,10.60
2018-11-10T06:51:20.671Z,10.97
2018-11-10T06:53:49.342Z,10.00
2018-11-10T06:56:17.992Z,11.33
2018-11-10T06:58:46.702Z,9.10
2018-11-10T07:01:15.332Z,8.87
2018-11-10T07:03:44.003Z,9.30
2018-11-10T07:06:12.698Z,8.47
2018-11-10T07:08:41.379Z,8.80
2018-11-10T07:11:10.035Z,8.37
2018-11-10T07:13:38.752Z,8.97
2018-11-10T07:16:07.350Z,7.90
2018-11-10T07:18:36.015Z,9.50
2018-11-10T07:21:04.957Z,8.43
2018-11-10T07:23:33.686Z,9.30
2018-11-10T07:26:02.409Z,7.87
2018-11-10T07:28:31.039Z,6.90
2018-11-10T07:30:59.852Z,7.07
2018-11-10T07:33:28.525Z,7.13
2018-11-10T07:35:57.172Z,7.10
2018-11-10T07:38:25.920Z,6.00
2018-11-10T07:40:54.584Z,6.27
2018-11-10T07:43:23.203Z,5.40
2018-11-10T07:45:51.966Z,5.70
2018-11-10T07:48:22.704Z,5.60
2018-11-10T07:50:52.280Z,6.20
2018-11-10T07:53:23.677Z,5.90
2018-11-10T07:55:52.461Z,5.23
2018-11-10T07:58:21.148Z,5.83
2018-11-10T08:00:49.791Z,5.57
2018-11-10T08:03:18.396Z,5.30
2018-11-10T08:05:47.105Z,6.03
2018-11-10T08:08:15.771Z,5.60
2018-11-10T08:10:44.432Z,5.27
2018-11-10T08:13:13.070Z,5.53
2018-11-10T08:15:41.741Z,5.20
2018-11-10T08:18:10.407Z,8.07
2018-11-10T08:20:39.081Z,6.17
2018-11-10T08:23:07.752Z,5.83
2018-11-10T08:25:36.391Z,5.83
2018-11-10T08:28:05.176Z,6.67
2018-11-10T08:30:33.849Z,6.13
2018-11-10T08:33:02.501Z,6.80
2018-11-10T08:35:31.284Z,6.83
2018-11-10T08:37:59.886Z,6.40
2018-11-10T08:40:28.483Z,6.53
2018-11-10T08:42:57.166Z,6.60
2018-11-10T08:45:25.829Z,5.60
2018-11-10T08:47:54.464Z,6.83
2018-11-10T08:50:23.106Z,6.53
2018-11-10T08:52:51.878Z,6.50
2018-11-10T08:55:20.519Z,7.43
2018-11-10T08:57:49.213Z,7.10
2018-11-10T09:00:17.880Z,6.10
2018-11-10T09:02:46.541Z,6.50
2018-11-10T09:05:15.188Z,7.37
2018-11-10T09:07:43.927Z,7.70
2018-11-10T09:10:13.843Z,6.13
2018-11-10T09:12:42.499Z,6.30
2018-11-10T09:15:13.246Z,5.73
2018-11-10T09:17:42.107Z,6.00
2018-11-10T09:20:12.434Z,6.63
2018-11-10T09:22:41.522Z,6.37
2018-11-10T09:25:12.460Z,6.77
2018-11-10T09:27:46.175Z,7.20
2018-11-10T09:30:20.172Z,6.70
2018-11-10T09:32:49.109Z,5.43
2018-11-10T09:35:17.760Z,5.43
2018-11-10T09:37:46.396Z,5.50
2018-11-10T09:40:16.224Z,6.63
2018-11-10T09:42:45.031Z,5.90
2018-11-10T09:45:14.696Z,4.90
2018-11-10T09:47:43.407Z,5.17
2018-11-10T09:50:14.381Z,4.67
2018-11-10T09:52:43.571Z,5.03
2018-11-10T09:55:12.615Z,4.80
2018-11-10T09:57:41.255Z,4.57
2018-11-10T10:00:13.939Z,4.40
2018-11-10T10:02:42.969Z,4.53
2018-11-10T10:05:11.686Z,4.00
2018-11-10T10:07:41.055Z,4.23
2018-11-10T10:10:11.548Z,4.37
2018-11-10T10:12:40.351Z,3.90
2018-11-10T10:15:10.932Z,3.90
2018-11-10T10:17:40.281Z,3.90
2018-11-10T10:20:11.497Z,4.13
2018-11-10T10:22:40.156Z,4.60
2018-11-10T10:25:10.274Z,3.70
2018-11-10T10:27:38.906Z,5.10
2018-11-10T10:30:14.013Z,4.10
2018-11-10T10:32:43.457Z,4.80
2018-11-10T10:35:12.509Z,4.10
2018-11-10T10:37:41.197Z,4.13
2018-11-10T10:40:11.653Z,4.07
2018-11-10T10:42:40.397Z,4.77
2018-11-10T10:45:11.708Z,3.93
2018-11-10T10:47:40.524Z,4.97
2018-11-10T10:50:10.938Z,4.00
2018-11-10T10:52:39.666Z,3.80
2018-11-10T10:55:08.701Z,3.87
2018-11-10T10:57:37.490Z,3.40
2018-11-10T11:00:10.493Z,3.33
2018-11-10T11:02:44.645Z,3.83
2018-11-10T11:05:15.207Z,4.87
2018-11-10T11:07:43.852Z,3.77
2018-11-10T11:10:12.525Z,4.00
2018-11-10T11:12:41.297Z,4.37
2018-11-10T11:15:10.012Z,3.80
2018-11-10T11:17:38.653Z,4.07
2018-11-10T11:20:07.604Z,3.03
2018-11-10T11:22:36.244Z,3.80
2018-11-10T11:25:05.541Z,3.50
2018-11-10T11:27:34.357Z,3.60
2018-11-10T11:30:03.502Z,3.60
2018-11-10T11:32:32.241Z,3.60
2018-11-10T11:35:00.875Z,3.37
2018-11-10T11:37:29.534Z,2.80
2018-11-10T11:39:58.189Z,3.40
2018-11-10T11:42:27.057Z,3.30
2018-11-10T11:44:55.628Z,3.43
2018-11-10T11:47:24.302Z,4.63
2018-11-10T11:49:53.094Z,4.13
2018-11-10T11:52:21.721Z,3.80
2018-11-10T11:54:50.380Z,2.93
2018-11-10T11:57:19.104Z,3.33
2018-11-10T11:59:47.723Z,3.77
2018-11-10T12:02:16.381Z,3.73
2018-11-10T12:04:45.101Z,4.23
2018-11-10T12:07:13.800Z,3.70
2018-11-10T12:09:42.415Z,3.87
2018-11-10T12:12:11.073Z,3.77
2018-11-10T12:14:39.785Z,3.90
2018-11-10T12:17:08.431Z,3.40
2018-11-10T12:19:37.193Z,4.13
2018-11-10T12:22:07.089Z,3.27
2018-11-10T12:24:36.105Z,3.40
2018-11-10T12:27:04.797Z,3.20
2018-11-10T12:29:33.467Z,3.40
2018-11-10T12:32:02.351Z,4.10
2018-11-10T12:34:30.929Z,3.20
2018-11-10T12:36:59.633Z,3.27
2018-11-10T12:39:28.338Z,3.87
2018-11-10T12:41:56.924Z,3.50
2018-11-10T12:44:25.598Z,3.20
2018-11-10T12:46:54.267Z,3.37
2018-11-10T12:49:22.920Z,3.73
2018-11-10T12:51:51.543Z,3.43
2018-11-10T12:54:20.244Z,3.50
2018-11-10T12:56:49.093Z,3.33
2018-11-10T12:59:17.706Z,3.27
2018-11-10T13:01:46.582Z,2.90
2018-11-10T13:04:15.293Z,3.27
2018-11-10T13:06:43.923Z,3.87
2018-11-10T13:09:12.618Z,2.73
2018-11-10T13:11:41.629Z,3.40
2018-11-10T13:14:10.994Z,3.17
2018-11-10T13:16:39.850Z,3.03
2018-11-10T13:19:09.811Z,2.73
2018-11-10T13:21:38.952Z,3.50
2018-11-10T13:24:07.796Z,3.37
2018-11-10T13:26:36.436Z,3.87
2018-11-10T13:29:05.318Z,3.40
2018-11-10T13:31:34.234Z,2.80
2018-11-10T13:34:02.783Z,3.10
2018-11-10T13:36:31.548Z,2.83
2018-11-10T13:39:00.199Z,2.80
2018-11-10T13:41:28.846Z,3.23
2018-11-10T13:43:57.715Z,3.40
2018-11-10T13:46:26.221Z,3.40
2018-11-10T13:48:54.852Z,3.80
2018-11-10T13:51:23.604Z,4.53
2018-11-10T13:53:52.136Z,5.07
2018-11-10T13:56:20.909Z,8.30
2018-11-10T13:58:49.532Z,10.57
2018-11-10T14:01:18.133Z,6.20
2018-11-10T14:03:46.787Z,5.80
2018-11-10T14:06:15.454Z,7.30
2018-11-10T14:08:44.113Z,9.50
2018-11-10T14:11:12.781Z,8.10
2018-11-10T14:13:41.421Z,6.40
2018-11-10T14:16:10.061Z,4.57
2018-11-10T14:18:38.770Z,3.90
2018-11-10T14:21:08.071Z,5.70
2018-11-10T14:23:36.809Z,4.30
2018-11-10T14:26:05.636Z,4.73
2018-11-10T14:28:34.314Z,4.17
2018-11-10T14:31:02.946Z,4.23
2018-11-10T14:33:31.577Z,6.13
2018-11-10T14:36:00.356Z,6.90
2018-11-10T14:38:29.016Z,8.07
2018-11-10T14:40:57.606Z,7.40
2018-11-10T14:43:26.368Z,11.30
2018-11-10T14:45:55.015Z,7.77
2018-11-10T14:48:23.663Z,8.93
2018-11-10T14:50:52.326Z,8.37
2018-11-10T14:53:21.138Z,6.80
2018-11-10T14:55:49.768Z,5.77
2018-11-10T14:58:19.272Z,5.63
2018-11-10T15:00:47.913Z,4.93
2018-11-10T15:03:16.516Z,5.40
2018-11-10T15:05:45.219Z,6.30
2018-11-10T15:08:13.889Z,6.47
2018-11-10T15:10:42.550Z,6.57
2018-11-10T15:13:11.301Z,6.70
2018-11-10T15:15:39.957Z,6.70
2018-11-10T15:18:08.680Z,6.70
2018-11-10T15:20:37.293Z,6.93
2018-11-10T15:23:06.405Z,7.03
2018-11-10T15:25:35.018Z,6.80
2018-11-10T15:28:03.733Z,6.40
2018-11-10T15:30:32.393Z,7.80
2018-11-10T15:33:01.043Z,7.30
2018-11-10T15:35:29.705Z,6.97
2018-11-10T15:37:58.470Z,7.40
2018-11-10T15:40:27.091Z,7.10
2018-11-10T15:42:55.712Z,7.47
2018-11-10T15:45:24.409Z,7.53
2018-11-10T15:47:53.189Z,7.10
2018-11-10T15:50:21.848Z,7.27
2018-11-10T15:52:50.517Z,7.20
2018-11-10T15:55:19.230Z,7.57
2018-11-10T15:57:47.968Z,7.73
2018-11-10T16:00:17.891Z,7.93
2018-11-10T16:02:46.501Z,7.53
2018-11-10T16:05:15.791Z,7.80
2018-11-10T16:07:44.518Z,8.50
2018-11-10T16:10:13.314Z,9.47
2018-11-10T16:12:42.056Z,8.30
2018-11-10T16:15:12.757Z,9.17
2018-11-10T16:17:41.737Z,8.27
2018-11-10T16:20:13.017Z,9.20
2018-11-10T16:22:42.009Z,10.23
2018-11-10T16:25:11.074Z,9.50
2018-11-10T16:27:39.750Z,10.87
2018-11-10T16:30:10.403Z,11.17
2018-11-10T16:32:39.070Z,11.10
2018-11-10T16:35:07.830Z,11.53
2018-11-10T16:37:36.552Z,10.93
2018-11-10T16:40:07.605Z,9.70
2018-11-10T16:42:36.292Z,10.80
2018-11-10T16:45:05.310Z,10.63
2018-11-10T16:47:33.969Z,8.87
2018-11-10T16:50:02.779Z,9.50
2018-11-10T16:52:31.616Z,9.70
2018-11-10T16:55:00.351Z,10.47
2018-11-10T16:57:29.442Z,10.00
2018-11-10T16:59:58.237Z,9.57
2018-11-10T17:02:26.884Z,9.53
2018-11-10T17:04:55.533Z,8.57
2018-11-10T17:07:24.553Z,8.10
2018-11-10T17:09:53.150Z,8.00
2018-11-10T17:12:21.755Z,8.37
2018-11-10T17:14:50.448Z,7.83
2018-11-10T17:17:19.118Z,7.70
2018-11-10T17:19:47.798Z,8.30
2018-11-10T17:22:16.530Z,7.40
2018-11-10T17:24:45.142Z,8.30
2018-11-10T17:27:13.847Z,7.47
2018-11-10T17:29:42.462Z,7.63
2018-11-10T17:32:11.161Z,6.20
2018-11-10T17:34:39.816Z,8.30
2018-11-10T17:37:08.456Z,11.60
2018-11-10T17:39:37.299Z,7.57
2018-11-10T17:42:06.160Z,6.77
2018-11-10T17:44:34.769Z,8.27
2018-11-10T17:47:03.357Z,7.60
2018-11-10T17:49:32.046Z,7.23
2018-11-10T17:52:00.684Z,7.70
2018-11-10T17:54:29.387Z,6.73
2018-11-10T17:56:58.043Z,6.90
2018-11-10T17:59:26.689Z,7.33
2018-11-10T18:01:55.527Z,7.23
2018-11-10T18:04:24.003Z,6.30
2018-11-10T18:06:52.663Z,6.10
2018-11-10T18:09:21.329Z,6.23
2018-11-10T18:11:49.961Z,4.73
2018-11-10T18:14:18.643Z,4.60
2018-11-10T18:16:47.310Z,4.53
2018-11-10T18:19:16.364Z,4.10
2018-11-10T18:21:45.029Z,4.53
2018-11-10T18:24:13.678Z,4.00
2018-11-10T18:26:42.330Z,4.43
2018-11-10T18:29:10.990Z,6.50
2018-11-10T18:31:39.629Z,6.83
2018-11-10T18:34:08.291Z,6.27
2018-11-10T18:36:37.004Z,5.53
2018-11-10T18:39:08.281Z,5.50
2018-11-10T18:41:37.033Z,6.40
2018-11-10T18:44:05.706Z,6.37
2018-11-10T18:46:34.367Z,6.10
2018-11-10T18:49:03.076Z,6.70
2018-11-10T18:51:31.692Z,7.07
2018-11-10T18:54:00.330Z,7.47
2018-11-10T18:56:28.978Z,8.13
2018-11-10T18:58:57.640Z,8.10
2018-11-10T19:01:26.240Z,6.57
2018-11-10T19:03:54.930Z,7.57
2018-11-10T19:06:23.647Z,7.57
2018-11-10T19:08:52.378Z,7.10
2018-11-10T19:11:20.997Z,7.60
2018-11-10T19:13:49.649Z,6.63
2018-11-10T19:16:18.306Z,8.07
2018-11-10T19:18:46.926Z,8.67
2018-11-10T19:21:15.625Z,10.03
2018-11-10T19:23:44.305Z,10.33
2018-11-10T19:26:13.001Z,10.43
2018-11-10T19:28:41.675Z,10.47
2018-11-10T19:31:10.369Z,10.13
2018-11-10T19:33:39.013Z,12.10
2018-11-10T19:36:07.741Z,13.27
2018-11-10T19:38:36.515Z,11.60
2018-11-10T19:41:05.525Z,11.83
2018-11-10T19:43:34.195Z,10.40
2018-11-10T19:46:02.897Z,11.07
2018-11-10T19:48:31.647Z,10.90
2018-11-10T19:51:00.413Z,10.97
2018-11-10T19:53:28.957Z,11.00
2018-11-10T19:55:57.640Z,9.97
2018-11-10T19:58:26.305Z,11.10
2018-11-10T20:00:55.035Z,11.43
2018-11-10T20:03:23.605Z,11.57
2018-11-10T20:05:52.237Z,13.30
2018-11-10T20:08:20.915Z,12.10
2018-11-10T20:10:49.500Z,10.60
2018-11-10T20:13:18.141Z,11.17
2018-11-10T20:15:46.826Z,11.53
2018-11-10T20:18:16.116Z,10.47
2018-11-10T20:20:44.750Z,11.70
2018-11-10T20:23:13.412Z,11.27
2018-11-10T20:25:42.057Z,12.60
2018-11-10T20:28:10.688Z,13.10
2018-11-10T20:30:39.457Z,12.03
2018-11-10T20:33:08.095Z,11.90
2018-11-10T20:35:36.758Z,10.80
2018-11-10T20:38:05.571Z,10.13
2018-11-10T20:40:34.253Z,9.70
2018-11-10T20:43:02.956Z,9.80
2018-11-10T20:45:31.646Z,9.10
2018-11-10T20:48:00.282Z,8.10
2018-11-10T20:50:28.905Z,8.50
2018-11-10T20:52:57.673Z,9.73
2018-11-10T20:55:26.329Z,8.13
2018-11-10T20:57:54.912Z,7.50
2018-11-10T21:00:23.763Z,7.20
2018-11-10T21:02:52.369Z,6.93
2018-11-10T21:05:21.019Z,8.57
2018-11-10T21:07:49.661Z,8.30
2018-11-10T21:10:19.545Z,6.40
2018-11-10T21:12:49.133Z,6.23
2018-11-10T21:15:18.590Z,6.13
2018-11-10T21:17:47.427Z,6.73
2018-11-10T21:20:16.104Z,6.30
2018-11-10T21:22:45.040Z,6.67
2018-11-10T21:25:15.324Z,6.70
2018-11-10T21:27:44.269Z,5.83
2018-11-10T21:30:14.457Z,6.23
2018-11-10T21:32:43.327Z,6.40
2018-11-10T21:35:12.082Z,6.63
2018-11-10T21:37:41.820Z,6.53
2018-11-10T21:40:17.817Z,6.43
2018-11-10T21:42:46.593Z,6.97
2018-11-10T21:45:15.984Z,6.97
2018-11-10T21:47:44.876Z,6.57
2018-11-10T21:50:16.750Z,6.10
2018-11-10T21:52:45.796Z,7.27
2018-11-10T21:55:16.910Z,7.03
2018-11-10T21:57:46.178Z,7.60
2018-11-10T22:00:16.818Z,7.20
2018-11-10T22:02:45.881Z,6.57
2018-11-10T22:05:14.600Z,6.30
2018-11-10T22:07:43.236Z,6.00
2018-11-10T22:10:13.700Z,5.13
2018-11-10T22:12:42.499Z,5.97
2018-11-10T22:15:13.928Z,5.73
2018-11-10T22:17:43.548Z,5.63
2018-11-10T22:20:13.759Z,5.90
2018-11-10T22:22:42.555Z,5.23
2018-11-10T22:25:13.033Z,5.53
2018-11-10T22:27:42.869Z,4.63
2018-11-10T22:30:13.772Z,4.67
2018-11-10T22:32:42.929Z,5.50
2018-11-10T22:35:11.783Z,4.90
2018-11-10T22:37:40.841Z,4.30
2018-11-10T22:40:11.640Z,4.20
2018-11-10T22:42:40.948Z,4.77
2018-11-10T22:45:11.255Z,4.67
2018-11-10T22:47:40.715Z,4.70
2018-11-10T22:50:11.628Z,5.50
2018-11-10T22:52:40.320Z,5.07
2018-11-10T22:55:09.447Z,4.50
2018-11-10T22:57:38.072Z,4.77
2018-11-10T23:00:10.057Z,5.17
2018-11-10T23:02:38.834Z,5.27
2018-11-10T23:05:07.497Z,5.70
2018-11-10T23:07:36.106Z,5.63
2018-11-10T23:10:04.941Z,5.33
2018-11-10T23:12:33.647Z,5.53
2018-11-10T23:15:02.291Z,5.60
2018-11-10T23:17:30.975Z,4.90
2018-11-10T23:19:59.607Z,5.07
2018-11-10T23:22:28.254Z,4.80
2018-11-10T23:24:57.030Z,5.43
2018-11-10T23:27:25.729Z,5.07
2018-11-10T23:29:54.410Z,5.00
2018-11-10T23:32:23.022Z,5.23
2018-11-10T23:34:51.737Z,4.87
2018-11-10T23:37:20.424Z,5.90
2018-11-10T23:39:49.088Z,5.17
2018-11-10T23:42:18.020Z,4.93
2018-11-10T23:44:46.773Z,4.63
2018-11-10T23:47:15.445Z,4.43
2018-11-10T23:49:44.036Z,5.00
2018-11-10T23:52:12.689Z,4.43
2018-11-10T23:54:41.296Z,4.57
2018-11-10T23:57:09.969Z,3.60
2018-11-10T23:59:38.648Z,3.50
